createdAt,value
2022-08-03T00:02:19.383Z,2.50
2022-08-03T00:04:48.900Z,2.78
2022-08-03T00:07:19.056Z,2.83
2022-08-03T00:09:48.487Z,2.78
2022-08-03T00:12:18.075Z,2.67
2022-08-03T00:14:47.807Z,2.67
2022-08-03T00:17:17.492Z,3.03
2022-08-03T00:19:46.981Z,3.30
2022-08-03T00:22:16.985Z,2.90
2022-08-03T00:24:46.561Z,2.70
2022-08-03T00:27:16.657Z,2.80
2022-08-03T00:29:57.596Z,2.80
2022-08-03T00:32:29.466Z,3.00
2022-08-03T00:34:59.808Z,2.80
2022-08-03T00:37:41.202Z,2.85
2022-08-03T00:40:15.279Z,2.45
2022-08-03T00:43:00.718Z,2.85
2022-08-03T00:45:31.898Z,2.70
2022-08-03T00:48:01.818Z,2.67
2022-08-03T00:50:34.746Z,2.90
2022-08-03T00:53:06.012Z,2.72
2022-08-03T00:55:35.446Z,2.80
2022-08-03T00:58:06.711Z,3.23
2022-08-03T01:00:39.023Z,2.78
2022-08-03T01:03:09.444Z,2.78
2022-08-03T01:05:43.230Z,2.95
2022-08-03T01:08:34.588Z,3.00
2022-08-03T01:11:15.264Z,3.03
2022-08-03T01:14:18.708Z,2.70
2022-08-03T01:17:00.288Z,2.92
2022-08-03T01:19:46.737Z,2.80
2022-08-03T01:22:40.465Z,2.63
2022-08-03T01:25:31.824Z,2.87
2022-08-03T01:28:17.073Z,5.07
2022-08-03T01:30:48.779Z,3.92
2022-08-03T01:33:23.650Z,3.03
2022-08-03T01:36:08.775Z,3.13
2022-08-03T01:38:39.784Z,2.90
2022-08-03T01:41:13.211Z,2.90
2022-08-03T01:44:27.698Z,2.83
2022-08-03T01:46:34.191Z,3.15
2022-08-03T01:49:09.156Z,3.10
2022-08-03T01:52:03.447Z,3.43
2022-08-03T01:54:31.253Z,3.05
2022-08-03T01:57:01.432Z,2.95
2022-08-03T01:59:32.217Z,3.10
2022-08-03T02:02:32.118Z,3.08
2022-08-03T02:04:53.414Z,2.47
2022-08-03T02:07:22.786Z,3.35
2022-08-03T02:09:54.007Z,3.00
2022-08-03T02:12:25.287Z,3.55
2022-08-03T02:14:54.844Z,3.33
2022-08-03T02:17:39.304Z,3.00
2022-08-03T02:20:10.557Z,3.30
2022-08-03T02:22:42.535Z,3.20
2022-08-03T02:25:18.438Z,3.42
2022-08-03T02:28:30.212Z,3.00
2022-08-03T02:30:59.728Z,2.80
2022-08-03T02:33:35.309Z,3.20
2022-08-03T02:36:05.163Z,2.92
2022-08-03T02:38:37.495Z,3.50
2022-08-03T02:41:11.062Z,3.72
2022-08-03T02:44:07.221Z,2.97
2022-08-03T02:46:36.112Z,3.20
2022-08-03T02:49:40.551Z,3.30
2022-08-03T02:51:56.260Z,3.30
2022-08-03T02:54:26.797Z,2.97
2022-08-03T02:56:59.977Z,3.27
2022-08-03T02:59:31.416Z,3.60
2022-08-03T03:02:03.096Z,3.55
2022-08-03T03:04:33.565Z,3.13
2022-08-03T03:07:04.454Z,3.45
2022-08-03T03:09:41.646Z,2.90
2022-08-03T03:12:13.735Z,3.20
2022-08-03T03:14:43.303Z,3.05
2022-08-03T03:17:14.079Z,3.10
2022-08-03T03:19:45.533Z,3.40
2022-08-03T03:22:16.054Z,2.87
2022-08-03T03:24:46.105Z,3.17
2022-08-03T03:27:17.451Z,3.25
2022-08-03T03:29:47.138Z,3.20
2022-08-03T03:32:17.103Z,3.17
2022-08-03T03:34:46.849Z,3.57
2022-08-03T03:37:16.117Z,4.28
2022-08-03T03:39:45.461Z,3.70
2022-08-03T03:42:14.811Z,3.90
2022-08-03T03:44:44.239Z,4.07
2022-08-03T03:47:13.527Z,7.20
2022-08-03T03:49:44.145Z,3.63
2022-08-03T03:52:14.156Z,3.38
2022-08-03T03:54:44.833Z,3.08
2022-08-03T03:57:14.705Z,3.47
2022-08-03T03:59:45.198Z,3.40
2022-08-03T04:02:15.104Z,2.90
2022-08-03T04:04:57.086Z,3.10
2022-08-03T04:07:40.032Z,4.28
2022-08-03T04:10:26.745Z,4.10
2022-08-03T04:12:57.290Z,3.40
2022-08-03T04:15:26.977Z,3.42
2022-08-03T04:17:58.849Z,3.17
2022-08-03T04:20:31.132Z,2.90
2022-08-03T04:23:02.674Z,3.33
2022-08-03T04:25:34.160Z,2.83
2022-08-03T04:28:29.496Z,3.17
2022-08-03T04:30:55.613Z,2.70
2022-08-03T04:33:25.646Z,3.00
2022-08-03T04:36:03.405Z,3.45
2022-08-03T04:38:34.510Z,3.13
2022-08-03T04:41:04.491Z,3.45
2022-08-03T04:43:36.016Z,3.05
2022-08-03T04:46:05.695Z,3.45
2022-08-03T04:48:35.018Z,3.00
2022-08-03T04:51:04.591Z,3.00
2022-08-03T04:53:33.875Z,3.17
2022-08-03T04:56:09.215Z,3.25
2022-08-03T04:58:38.500Z,3.00
2022-08-03T05:01:07.924Z,3.33
2022-08-03T05:03:37.405Z,3.03
2022-08-03T05:06:11.026Z,3.15
2022-08-03T05:08:46.548Z,3.13
2022-08-03T05:11:16.289Z,3.10
2022-08-03T05:13:46.195Z,3.60
2022-08-03T05:16:16.067Z,3.30
2022-08-03T05:18:46.093Z,3.05
2022-08-03T05:21:16.983Z,4.80
2022-08-03T05:23:47.481Z,3.28
2022-08-03T05:26:16.857Z,3.28
2022-08-03T05:28:51.007Z,3.43
2022-08-03T05:31:21.095Z,3.42
2022-08-03T05:33:50.679Z,3.45
2022-08-03T05:36:19.977Z,2.83
2022-08-03T05:38:49.191Z,2.88
2022-08-03T05:41:22.906Z,2.50
2022-08-03T05:43:54.563Z,2.97
2022-08-03T05:46:25.177Z,3.10
2022-08-03T05:48:54.559Z,3.67
2022-08-03T05:51:23.892Z,2.85
2022-08-03T05:53:53.140Z,3.17
2022-08-03T05:56:25.901Z,2.67
2022-08-03T05:58:55.651Z,2.60
2022-08-03T06:01:25.279Z,2.80
2022-08-03T06:03:54.796Z,2.63
2022-08-03T06:06:24.042Z,2.90
2022-08-03T06:08:53.325Z,2.85
2022-08-03T06:11:22.588Z,3.15
2022-08-03T06:13:51.873Z,2.90
2022-08-03T06:16:21.096Z,2.92
2022-08-03T06:18:50.449Z,2.80
2022-08-03T06:21:19.711Z,2.80
2022-08-03T06:23:54.601Z,2.55
2022-08-03T06:26:25.888Z,2.78
2022-08-03T06:28:55.505Z,2.60
2022-08-03T06:31:33.142Z,2.30
2022-08-03T06:34:33.715Z,2.97
2022-08-03T06:36:58.459Z,2.60
2022-08-03T06:39:31.310Z,2.53
2022-08-03T06:42:00.752Z,2.40
2022-08-03T06:44:29.997Z,2.53
2022-08-03T06:46:59.292Z,3.13
2022-08-03T06:49:28.674Z,2.58
2022-08-03T06:52:06.042Z,2.47
2022-08-03T06:54:36.287Z,2.80
2022-08-03T06:57:06.039Z,2.60
2022-08-03T07:00:08.447Z,2.42
2022-08-03T07:02:24.670Z,2.78
2022-08-03T07:04:57.617Z,2.63
2022-08-03T07:07:26.914Z,2.75
2022-08-03T07:09:57.785Z,2.90
2022-08-03T07:12:28.071Z,2.42
2022-08-03T07:15:01.275Z,2.80
2022-08-03T07:17:33.090Z,2.60
2022-08-03T07:20:03.163Z,2.20
2022-08-03T07:22:32.515Z,2.50
2022-08-03T07:25:02.018Z,2.30
2022-08-03T07:27:31.430Z,2.47
2022-08-03T07:30:01.721Z,2.10
2022-08-03T07:32:31.834Z,3.17
2022-08-03T07:35:01.759Z,2.27
2022-08-03T07:37:32.149Z,5.10
2022-08-03T07:40:03.082Z,1.80
2022-08-03T07:42:32.905Z,1.75
2022-08-03T07:45:02.844Z,2.35
2022-08-03T07:47:36.033Z,1.90
2022-08-03T07:50:06.641Z,2.00
2022-08-03T07:52:53.712Z,2.33
2022-08-03T07:55:25.660Z,2.50
2022-08-03T07:58:09.404Z,2.20
2022-08-03T08:00:38.989Z,2.43
2022-08-03T08:03:08.340Z,1.70
2022-08-03T08:05:37.692Z,1.80
2022-08-03T08:08:07.346Z,1.85
2022-08-03T08:10:36.686Z,2.22
2022-08-03T08:13:06.747Z,2.10
2022-08-03T08:15:36.074Z,1.95
2022-08-03T08:18:12.955Z,1.80
2022-08-03T08:20:42.481Z,2.53
2022-08-03T08:23:37.948Z,2.35
2022-08-03T08:26:02.349Z,1.97
2022-08-03T08:28:33.690Z,2.00
2022-08-03T08:31:04.113Z,2.17
2022-08-03T08:34:02.676Z,2.40
2022-08-03T08:36:24.194Z,2.20
2022-08-03T08:38:53.451Z,2.10
2022-08-03T08:41:22.747Z,2.00
2022-08-03T08:43:52.068Z,2.30
2022-08-03T08:46:23.731Z,2.10
2022-08-03T08:48:54.077Z,1.70
2022-08-03T08:51:24.828Z,1.97
2022-08-03T08:54:14.211Z,2.28
2022-08-03T08:56:44.307Z,1.90
2022-08-03T08:59:13.683Z,1.90
2022-08-03T09:01:42.958Z,2.17
2022-08-03T09:04:12.369Z,2.20
2022-08-03T09:06:47.321Z,2.20
2022-08-03T09:10:08.147Z,2.30
2022-08-03T09:12:39.187Z,1.90
2022-08-03T09:15:19.929Z,2.50
2022-08-03T09:17:51.268Z,2.23
2022-08-03T09:20:22.217Z,2.20
2022-08-03T09:22:59.865Z,2.28
2022-08-03T09:25:34.605Z,2.33
2022-08-03T09:28:09.117Z,2.30
2022-08-03T09:30:39.358Z,2.30
2022-08-03T09:33:13.858Z,2.15
2022-08-03T09:35:53.758Z,2.30
2022-08-03T09:38:27.649Z,2.30
2022-08-03T09:41:00.614Z,2.00
2022-08-03T09:43:30.860Z,2.10
2022-08-03T09:46:07.827Z,2.05
2022-08-03T09:48:37.458Z,2.13
2022-08-03T09:51:12.920Z,2.03
2022-08-03T09:53:59.791Z,2.20
2022-08-03T09:56:42.432Z,2.00
2022-08-03T09:59:12.906Z,1.90
2022-08-03T10:01:44.324Z,2.22
2022-08-03T10:04:17.621Z,1.70
2022-08-03T10:06:48.026Z,1.90
2022-08-03T10:09:19.798Z,1.90
2022-08-03T10:11:49.840Z,1.80
2022-08-03T10:14:22.668Z,2.03
2022-08-03T10:16:52.392Z,2.15
2022-08-03T10:19:21.786Z,2.30
2022-08-03T10:21:53.648Z,1.80
2022-08-03T10:24:31.040Z,2.05
2022-08-03T10:27:05.637Z,2.10
2022-08-03T10:29:40.984Z,2.65
2022-08-03T10:32:14.684Z,2.00
2022-08-03T10:34:45.363Z,2.00
2022-08-03T10:37:15.121Z,2.30
2022-08-03T10:39:53.643Z,2.55
2022-08-03T10:42:27.299Z,1.60
2022-08-03T10:45:10.136Z,1.80
2022-08-03T10:47:39.665Z,1.63
2022-08-03T10:50:09.773Z,1.70
2022-08-03T10:52:41.397Z,1.70
2022-08-03T10:55:49.283Z,1.83
2022-08-03T10:58:30.573Z,1.70
2022-08-03T11:01:00.267Z,1.80
2022-08-03T11:03:29.559Z,2.00
2022-08-03T11:06:20.018Z,1.92
2022-08-03T11:08:50.496Z,1.80
2022-08-03T11:11:19.643Z,1.70
2022-08-03T11:14:14.208Z,1.60
2022-08-03T11:16:47.946Z,1.75
2022-08-03T11:19:22.525Z,1.73
2022-08-03T11:21:51.779Z,2.05
2022-08-03T11:24:39.498Z,1.70
2022-08-03T11:27:18.092Z,1.60
2022-08-03T11:30:04.268Z,1.52
2022-08-03T11:32:48.210Z,1.77
2022-08-03T11:35:18.969Z,2.00
2022-08-03T11:38:03.545Z,1.90
2022-08-03T11:40:52.722Z,1.60
2022-08-03T11:43:28.988Z,1.80
2022-08-03T11:46:04.293Z,1.70
2022-08-03T11:48:44.049Z,1.83
2022-08-03T11:51:29.817Z,1.73
2022-08-03T11:54:06.122Z,1.80
2022-08-03T11:56:52.591Z,1.75
2022-08-03T11:59:34.837Z,1.70
2022-08-03T12:02:16.476Z,2.03
2022-08-03T12:04:58.375Z,1.90
2022-08-03T12:08:03.046Z,1.70
2022-08-03T12:10:17.971Z,1.70
2022-08-03T12:12:47.305Z,1.70
2022-08-03T12:15:17.352Z,1.80
2022-08-03T12:17:46.679Z,1.83
2022-08-03T12:20:35.307Z,2.03
2022-08-03T12:23:07.049Z,2.00
2022-08-03T12:25:39.657Z,2.00
2022-08-03T12:28:30.345Z,1.85
2022-08-03T12:31:09.531Z,2.10
2022-08-03T12:33:59.302Z,1.83
2022-08-03T12:36:29.800Z,1.75
2022-08-03T12:39:01.698Z,2.05
2022-08-03T12:41:36.618Z,2.03
2022-08-03T12:44:07.475Z,1.95
2022-08-03T12:46:41.755Z,1.83
2022-08-03T12:49:15.622Z,1.95
2022-08-03T12:51:44.853Z,1.90
2022-08-03T12:54:24.528Z,1.95
2022-08-03T12:57:16.005Z,2.03
2022-08-03T12:59:52.775Z,2.53
2022-08-03T13:02:25.199Z,2.00
2022-08-03T13:04:57.589Z,1.90
2022-08-03T13:07:26.927Z,2.20
2022-08-03T13:09:59.221Z,1.95
2022-08-03T13:12:31.773Z,2.00
2022-08-03T13:15:02.690Z,2.25
2022-08-03T13:17:31.925Z,2.10
2022-08-03T13:20:01.241Z,1.85
2022-08-03T13:22:31.147Z,2.30
2022-08-03T13:25:01.570Z,2.50
2022-08-03T13:28:03.508Z,2.20
2022-08-03T13:30:29.795Z,2.00
2022-08-03T13:33:01.453Z,1.90
2022-08-03T13:35:30.723Z,2.15
2022-08-03T13:37:59.991Z,2.20
2022-08-03T13:40:34.417Z,1.92
2022-08-03T13:43:07.685Z,2.10
2022-08-03T13:45:36.953Z,2.22
2022-08-03T13:48:09.536Z,1.70
2022-08-03T13:50:42.950Z,2.30
2022-08-03T13:53:12.568Z,2.05
2022-08-03T13:55:41.820Z,2.10
2022-08-03T13:58:12.479Z,2.08
2022-08-03T14:00:42.499Z,2.40
2022-08-03T14:03:14.498Z,2.00
2022-08-03T14:05:45.492Z,1.88
2022-08-03T14:08:15.030Z,2.60
2022-08-03T14:10:46.022Z,2.08
2022-08-03T14:13:18.005Z,1.77
2022-08-03T14:15:49.711Z,1.93
2022-08-03T14:18:27.658Z,1.75
2022-08-03T14:21:06.015Z,1.95
2022-08-03T14:23:36.363Z,2.83
2022-08-03T14:26:05.860Z,2.00
2022-08-03T14:28:35.296Z,2.10
2022-08-03T14:31:08.530Z,2.10
2022-08-03T14:33:55.725Z,2.15
2022-08-03T14:36:25.472Z,2.40
2022-08-03T14:38:58.229Z,2.10
2022-08-03T14:41:30.501Z,2.13
2022-08-03T14:44:00.549Z,2.00
2022-08-03T14:46:31.655Z,2.03
2022-08-03T14:50:10.339Z,2.50
2022-08-03T14:51:53.607Z,2.00
2022-08-03T14:54:23.337Z,2.00
2022-08-03T14:56:52.975Z,2.30
2022-08-03T14:59:22.237Z,2.35
2022-08-03T15:02:04.728Z,2.00
2022-08-03T15:04:35.837Z,3.08
2022-08-03T15:07:05.071Z,2.17
2022-08-03T15:09:34.670Z,2.28
2022-08-03T15:12:04.094Z,2.00
2022-08-03T15:14:34.914Z,2.20
2022-08-03T15:17:07.465Z,2.42
2022-08-03T15:20:01.641Z,2.30
2022-08-03T15:22:34.762Z,2.40
2022-08-03T15:26:29.083Z,2.20
2022-08-03T15:28:03.848Z,2.58
2022-08-03T15:30:37.023Z,2.05
2022-08-03T15:33:06.385Z,2.33
2022-08-03T15:35:35.829Z,1.88
2022-08-03T15:38:09.176Z,1.95
2022-08-03T15:40:39.142Z,1.98
2022-08-03T15:43:08.392Z,1.85
2022-08-03T15:45:37.623Z,1.80
2022-08-03T15:48:08.323Z,2.10
2022-08-03T15:50:37.693Z,2.15
2022-08-03T15:53:07.795Z,2.00
2022-08-03T15:55:37.059Z,2.10
2022-08-03T15:59:03.156Z,2.23
2022-08-03T16:00:56.979Z,1.92
2022-08-03T16:03:28.436Z,1.80
2022-08-03T16:05:57.980Z,1.92
2022-08-03T16:08:27.238Z,2.00
2022-08-03T16:10:56.523Z,1.73
2022-08-03T16:14:13.552Z,1.73
2022-08-03T16:16:16.413Z,2.10
2022-08-03T16:18:45.655Z,1.83
2022-08-03T16:21:19.314Z,1.90
2022-08-03T16:23:49.627Z,1.80
2022-08-03T16:26:18.857Z,2.00
2022-08-03T16:28:48.926Z,2.08
2022-08-03T16:31:18.202Z,2.13
2022-08-03T16:33:47.516Z,2.10
2022-08-03T16:36:16.734Z,2.30
2022-08-03T16:38:46.094Z,2.20
2022-08-03T16:41:15.353Z,1.90
2022-08-03T16:43:44.589Z,1.83
2022-08-03T16:46:13.813Z,2.00
2022-08-03T16:48:43.277Z,1.97
2022-08-03T16:51:12.622Z,2.08
2022-08-03T16:54:05.115Z,2.22
2022-08-03T16:56:31.311Z,2.15
2022-08-03T16:59:06.536Z,2.30
2022-08-03T17:01:37.915Z,2.00
2022-08-03T17:04:07.569Z,2.10
2022-08-03T17:06:44.889Z,1.92
2022-08-03T17:09:19.089Z,2.00
2022-08-03T17:11:52.379Z,2.00
2022-08-03T17:14:29.242Z,2.00
2022-08-03T17:17:01.617Z,1.85
2022-08-03T17:19:32.473Z,1.83
2022-08-03T17:22:07.303Z,1.80
2022-08-03T17:24:41.523Z,1.85
2022-08-03T17:28:41.392Z,1.80
2022-08-03T17:30:15.936Z,2.17
2022-08-03T17:32:56.596Z,2.20
2022-08-03T17:35:36.416Z,2.20
2022-08-03T17:38:13.819Z,3.15
2022-08-03T17:44:14.170Z,2.00
2022-08-03T17:46:23.949Z,2.58
2022-08-03T17:48:54.146Z,2.33
2022-08-03T17:51:32.793Z,2.10
2022-08-03T17:54:18.168Z,2.20
2022-08-03T17:57:00.272Z,2.15
2022-08-03T18:00:29.612Z,1.83
2022-08-03T18:03:18.391Z,2.30
2022-08-03T18:06:11.574Z,2.10
2022-08-03T18:08:53.424Z,2.30
2022-08-03T18:11:35.569Z,2.28
2022-08-03T18:14:27.361Z,2.78
2022-08-03T18:17:04.043Z,2.65
2022-08-03T18:20:02.610Z,2.25
2022-08-03T18:22:30.560Z,2.33
2022-08-03T18:25:01.625Z,2.33
2022-08-03T18:27:42.660Z,2.33
2022-08-03T18:30:16.510Z,1.98
2022-08-03T18:33:01.066Z,1.80
2022-08-03T18:35:53.326Z,1.70
2022-08-03T18:38:24.055Z,1.63
2022-08-03T18:40:53.309Z,2.10
2022-08-03T18:43:46.464Z,2.50
2022-08-03T18:46:26.309Z,2.40
2022-08-03T18:49:14.378Z,2.00
2022-08-03T18:51:47.305Z,2.10
2022-08-03T18:54:45.898Z,2.05
2022-08-03T18:57:16.851Z,2.05
2022-08-03T19:00:02.408Z,2.10
2022-08-03T19:02:36.884Z,2.37
2022-08-03T19:05:11.406Z,2.05
2022-08-03T19:07:41.456Z,2.83
2022-08-03T19:10:15.859Z,2.83
2022-08-03T19:12:56.021Z,2.17
2022-08-03T19:15:41.283Z,1.87
2022-08-03T19:18:12.399Z,1.90
2022-08-03T19:20:47.135Z,2.20
2022-08-03T19:23:17.144Z,2.47
2022-08-03T19:25:47.062Z,2.42
2022-08-03T19:28:19.189Z,3.30
2022-08-03T19:30:59.543Z,4.60
2022-08-03T19:33:33.511Z,4.75
2022-08-03T19:36:28.773Z,8.25
2022-08-03T19:38:59.132Z,2.92
2022-08-03T19:41:42.122Z,2.00
2022-08-03T19:44:19.985Z,2.70
2022-08-03T19:46:54.027Z,2.55
2022-08-03T19:50:05.128Z,2.67
2022-08-03T19:52:20.578Z,2.20
2022-08-03T19:54:55.255Z,2.33
2022-08-03T19:57:27.332Z,2.60
2022-08-03T19:59:58.546Z,3.00
2022-08-03T20:02:32.999Z,3.13
2022-08-03T20:05:02.301Z,3.17
2022-08-03T20:07:35.161Z,3.00
2022-08-03T20:10:08.985Z,3.28
2022-08-03T20:12:39.399Z,4.03
2022-08-03T20:15:10.864Z,3.30
2022-08-03T20:17:57.025Z,3.83
2022-08-03T20:20:33.442Z,2.70
2022-08-03T20:23:06.851Z,3.50
2022-08-03T20:25:57.091Z,3.55
2022-08-03T20:28:33.774Z,4.18
2022-08-03T20:31:03.084Z,2.78
2022-08-03T20:33:46.428Z,2.50
2022-08-03T20:36:18.583Z,3.40
2022-08-03T20:38:52.038Z,5.65
2022-08-03T20:41:23.037Z,3.60
2022-08-03T20:43:52.314Z,3.88
2022-08-03T20:46:32.105Z,3.10
2022-08-03T20:49:08.408Z,3.08
2022-08-03T20:51:49.895Z,2.60
2022-08-03T20:54:30.853Z,2.55
2022-08-03T20:57:05.108Z,2.28
2022-08-03T20:59:50.420Z,2.60
2022-08-03T21:02:30.272Z,2.60
2022-08-03T21:05:08.515Z,3.25
2022-08-03T21:08:07.867Z,2.33
2022-08-03T21:10:38.437Z,3.25
2022-08-03T21:12:59.219Z,2.13
2022-08-03T21:13:17.730Z,2.90
2022-08-03T21:16:12.410Z,2.85
2022-08-03T21:18:46.482Z,3.38
2022-08-03T21:21:19.413Z,2.70
2022-08-03T21:23:52.761Z,2.90
2022-08-03T21:26:24.168Z,3.03
2022-08-03T21:28:58.197Z,2.55
2022-08-03T21:31:28.229Z,3.30
2022-08-03T21:33:59.357Z,2.90
2022-08-03T21:36:30.591Z,3.13
2022-08-03T21:39:00.432Z,3.17
2022-08-03T21:41:31.610Z,3.03
2022-08-03T21:44:01.907Z,3.75
2022-08-03T21:46:36.740Z,2.65
2022-08-03T21:49:51.958Z,2.60
2022-08-03T21:52:01.389Z,2.60
2022-08-03T21:54:46.009Z,2.22
2022-08-03T21:57:22.165Z,2.50
2022-08-03T21:59:59.830Z,2.50
2022-08-03T22:02:32.509Z,2.35
2022-08-03T22:05:04.968Z,2.73
2022-08-03T22:07:35.837Z,2.80
2022-08-03T22:10:08.350Z,2.60
2022-08-03T22:12:38.003Z,2.65
2022-08-03T22:15:13.540Z,2.70
2022-08-03T22:17:55.007Z,2.77
2022-08-03T22:20:26.730Z,2.90
2022-08-03T22:22:59.227Z,2.90
2022-08-03T22:25:34.249Z,3.03
2022-08-03T22:28:11.172Z,3.40
2022-08-03T22:30:41.909Z,3.50
2022-08-03T22:33:12.583Z,3.50
2022-08-03T22:35:48.493Z,3.40
2022-08-03T22:38:18.860Z,3.10
2022-08-03T22:40:51.427Z,2.92
2022-08-03T22:43:26.835Z,2.97
2022-08-03T22:46:09.554Z,3.42
2022-08-03T22:48:43.163Z,3.85
2022-08-03T22:51:12.863Z,4.10
2022-08-03T22:53:42.387Z,4.45
2022-08-03T22:56:11.671Z,3.87
2022-08-03T22:58:40.964Z,3.25
2022-08-03T23:01:12.135Z,3.70
2022-08-03T23:04:00.713Z,3.47
2022-08-03T23:06:35.300Z,3.95
2022-08-03T23:09:11.906Z,3.50
2022-08-03T23:11:45.461Z,4.25
2022-08-03T23:14:18.422Z,4.22
2022-08-03T23:16:49.035Z,4.57
2022-08-03T23:19:25.341Z,3.38
2022-08-03T23:22:02.500Z,3.40
2022-08-03T23:24:32.525Z,3.38
2022-08-03T23:27:02.272Z,3.38
2022-08-03T23:29:33.201Z,3.22
2022-08-03T23:32:04.526Z,3.60
2022-08-03T23:34:46.990Z,3.73
2022-08-03T23:37:17.714Z,3.55
2022-08-03T23:39:49.353Z,3.92
2022-08-03T23:42:22.903Z,3.72
2022-08-03T23:44:56.561Z,3.22
2022-08-03T23:47:46.711Z,3.53
2022-08-03T23:50:16.811Z,3.45
2022-08-03T23:53:04.484Z,3.75
2022-08-03T23:55:43.627Z,3.28
2022-08-03T23:58:41.094Z,3.17
